Time;durP1;ratioP1;P1;durP2;ratioP2;P2;SDS_P1;SDS_P2;PMS_P1;PMS_P2;Temp;Humidity;BMP_temperature;BMP_pressure;BME280_temperature;BME280_humidity;BME280_pressure;Samples;Min_cycle;Max_cycle;Signal;HPM_P1;HPM_P2
2022/03/20 00:02:18;;;;;;;32.70;25.67;;;;;;;5.80;61.79;101572.16;5037883;28;20419;-78
2022/03/20 00:04:44;;;;;;;30.57;25.30;;;;;;;5.77;61.70;101578.75;5034833;28;20449;-78
2022/03/20 00:07:11;;;;;;;30.83;25.00;;;;;;;5.82;61.89;101573.66;5034573;28;20769;-79
2022/03/20 00:09:38;;;;;;;34.00;26.23;;;;;;;5.86;61.00;101571.47;5028624;28;20418;-78
2022/03/20 00:12:04;;;;;;;31.63;25.42;;;;;;;5.82;61.20;101567.44;5032618;28;20489;-78
2022/03/20 00:14:29;;;;;;;33.03;25.08;;;;;;;5.81;61.58;101569.31;5034755;28;20902;-78
2022/03/20 00:16:54;;;;;;;29.77;25.03;;;;;;;5.80;61.07;101559.56;5034426;28;20403;-78
2022/03/20 00:19:19;;;;;;;34.50;24.40;;;;;;;5.80;60.49;101551.47;5033727;28;20411;-78
2022/03/20 00:21:45;;;;;;;33.90;25.37;;;;;;;5.81;60.66;101555.00;5031727;28;20414;-78
2022/03/20 00:24:10;;;;;;;40.10;27.23;;;;;;;5.74;60.88;101552.25;5024803;28;20455;-78
2022/03/20 00:26:39;;;;;;;36.88;25.92;;;;;;;5.79;60.40;101549.00;5032643;28;20412;-78
2022/03/20 00:29:05;;;;;;;32.70;26.13;;;;;;;5.77;59.74;101535.72;5032834;28;20491;-78
2022/03/20 00:31:32;;;;;;;36.25;26.52;;;;;;;5.76;60.07;101539.47;5023954;28;20867;-78
2022/03/20 00:33:58;;;;;;;35.08;27.70;;;;;;;5.61;59.88;101536.75;5029854;28;20502;-78
2022/03/20 00:36:23;;;;;;;35.40;25.73;;;;;;;5.42;59.98;101534.63;5031795;28;20510;-78
2022/03/20 00:38:48;;;;;;;31.23;25.07;;;;;;;5.32;60.05;101534.06;5030339;28;20407;-78
2022/03/20 00:41:14;;;;;;;33.47;25.15;;;;;;;5.32;60.31;101533.25;5063138;28;20476;-78
2022/03/20 00:43:39;;;;;;;33.47;24.17;;;;;;;5.34;59.94;101520.44;5032334;28;20407;-79
2022/03/20 00:46:04;;;;;;;31.03;25.33;;;;;;;5.27;59.70;101533.78;5034595;28;20398;-78
2022/03/20 00:48:29;;;;;;;30.70;24.08;;;;;;;5.23;59.51;101529.81;5025590;28;20411;-78
2022/03/20 00:50:55;;;;;;;31.17;24.00;;;;;;;5.20;59.44;101524.81;5032738;28;20516;-78
2022/03/20 00:53:20;;;;;;;29.63;23.33;;;;;;;5.15;59.56;101522.66;5032450;28;20415;-78
2022/03/20 00:55:45;;;;;;;32.90;23.57;;;;;;;5.09;59.31;101520.72;5032344;28;20391;-78
2022/03/20 00:58:12;;;;;;;31.67;24.27;;;;;;;5.10;59.04;101510.81;5031229;28;20467;-78
2022/03/20 01:00:37;;;;;;;29.42;23.27;;;;;;;4.99;59.39;101505.88;5032973;28;20402;-78
2022/03/20 01:03:03;;;;;;;34.88;23.90;;;;;;;4.94;58.90;101502.91;5032320;28;20405;-78
2022/03/20 01:05:28;;;;;;;32.37;23.93;;;;;;;4.95;59.38;101500.03;5038206;28;20398;-78
2022/03/20 01:07:53;;;;;;;28.53;22.97;;;;;;;4.87;59.38;101494.75;5033444;28;20443;-79
2022/03/20 01:10:19;;;;;;;31.02;23.08;;;;;;;4.85;59.51;101490.56;5033861;28;20396;-78
2022/03/20 01:12:44;;;;;;;28.65;23.02;;;;;;;4.90;59.24;101482.81;5032789;28;20910;-78
2022/03/20 01:15:12;;;;;;;33.77;24.57;;;;;;;5.09;59.31;101491.16;5031751;28;20411;-78
2022/03/20 01:17:38;;;;;;;28.38;23.08;;;;;;;5.20;58.51;101490.69;5032640;28;20419;-78
2022/03/20 01:20:05;;;;;;;33.08;24.58;;;;;;;5.19;57.78;101489.03;5032632;28;20879;-78
2022/03/20 01:22:30;;;;;;;30.42;23.23;;;;;;;5.20;57.72;101492.56;5032138;28;20418;-78
2022/03/20 01:24:56;;;;;;;33.25;23.95;;;;;;;5.24;58.27;101491.16;5033339;28;20395;-78
2022/03/20 01:27:21;;;;;;;29.43;23.17;;;;;;;5.27;58.30;101484.59;5032277;28;20399;-78
2022/03/20 01:29:46;;;;;;;29.63;23.47;;;;;;;5.29;58.25;101478.00;5031324;28;20437;-78
2022/03/20 01:32:12;;;;;;;31.07;23.80;;;;;;;5.21;58.22;101468.19;5033390;28;20419;-78
2022/03/20 01:34:38;;;;;;;27.97;22.47;;;;;;;5.20;57.99;101463.00;5033244;28;20387;-78
2022/03/20 01:37:04;;;;;;;29.90;22.55;;;;;;;5.23;58.11;101452.72;5032353;28;20464;-78
2022/03/20 01:39:29;;;;;;;30.80;22.52;;;;;;;5.20;58.15;101452.25;5030310;28;20878;-78
2022/03/20 01:41:55;;;;;;;29.90;22.53;;;;;;;5.19;57.99;101447.88;5033171;28;20391;-78
2022/03/20 01:44:29;;;;;;;29.60;23.05;;;;;;;5.20;57.47;101455.75;5031952;28;20770;-78
2022/03/20 01:46:54;;;;;;;28.80;21.50;;;;;;;5.20;57.48;101461.13;5032939;28;20405;-78
2022/03/20 01:49:19;;;;;;;31.83;23.30;;;;;;;5.17;57.20;101444.56;5028480;28;20407;-78
2022/03/20 01:54:30;;;;;;;29.53;22.80;;;;;;;4.94;57.15;101430.38;5031445;28;20502;-78
2022/03/20 01:56:55;;;;;;;33.57;21.50;;;;;;;4.80;57.49;101429.34;5028032;28;20440;-78
2022/03/20 01:59:21;;;;;;;27.33;22.00;;;;;;;4.80;57.89;101436.56;5024317;28;20945;-78
2022/03/20 02:01:46;;;;;;;32.40;22.67;;;;;;;4.89;57.23;101440.84;5032538;28;20469;-78
2022/03/20 02:04:15;;;;;;;27.73;21.00;;;;;;;4.92;56.81;101430.56;5033609;28;20411;-78
2022/03/20 02:06:42;;;;;;;27.65;21.45;;;;;;;4.94;56.54;101439.25;5032675;28;20407;-78
2022/03/20 02:09:08;;;;;;;29.25;21.95;;;;;;;4.85;56.32;101445.75;5025652;28;20431;-78
2022/03/20 02:11:33;;;;;;;30.57;21.67;;;;;;;4.93;56.07;101434.09;5032539;28;20441;-79
2022/03/20 02:13:59;;;;;;;27.20;20.93;;;;;;;4.98;55.75;101440.56;5028455;28;20419;-78
2022/03/20 02:16:24;;;;;;;27.77;21.07;;;;;;;4.97;55.91;101430.03;5026783;28;20419;-78
2022/03/20 02:18:50;;;;;;;26.83;21.50;;;;;;;4.95;55.60;101422.13;5028327;28;20504;-78
2022/03/20 02:21:15;;;;;;;28.07;20.90;;;;;;;4.84;55.82;101421.75;5032203;28;20399;-78
2022/03/20 02:23:44;;;;;;;29.70;21.83;;;;;;;4.83;56.21;101414.72;5032061;28;20514;-78
2022/03/20 02:26:10;;;;;;;33.03;22.10;;;;;;;4.80;56.08;101413.25;5030992;28;20490;-78
2022/03/20 02:28:36;;;;;;;29.40;21.63;;;;;;;4.80;55.90;101402.50;5028661;28;20409;-78
2022/03/20 02:31:02;;;;;;;27.40;20.30;;;;;;;4.72;55.76;101406.09;5031742;28;20411;-78
2022/03/20 02:33:29;;;;;;;28.42;20.08;;;;;;;4.81;55.72;101411.41;5036713;28;20426;-78
2022/03/20 02:35:55;;;;;;;29.10;21.38;;;;;;;4.92;55.53;101410.91;5033320;28;20905;-78
2022/03/20 02:38:20;;;;;;;26.40;21.02;;;;;;;4.95;55.30;101414.06;5029447;28;20419;-78
2022/03/20 02:40:54;;;;;;;28.10;21.00;;;;;;;4.91;55.70;101410.06;5031772;28;20508;-78
2022/03/20 02:43:19;;;;;;;28.38;21.02;;;;;;;4.91;55.68;101393.13;5025563;28;20505;-78
2022/03/20 02:45:44;;;;;;;28.25;20.45;;;;;;;4.94;55.29;101395.47;5027450;28;20513;-78
2022/03/20 02:48:10;;;;;;;30.40;20.93;;;;;;;4.97;55.49;101397.78;5025845;28;20403;-78
2022/03/20 02:50:37;;;;;;;25.73;20.43;;;;;;;4.93;55.75;101394.63;5032424;28;20399;-78
2022/03/20 02:53:06;;;;;;;25.57;19.83;;;;;;;4.98;55.27;101389.53;5031857;28;20857;-78
2022/03/20 02:55:37;;;;;;;24.77;19.48;;;;;;;5.01;54.87;101388.31;5031276;28;20612;-78
2022/03/20 02:58:11;;;;;;;25.70;19.98;;;;;;;5.05;54.83;101381.56;5029893;28;20423;-78
2022/03/20 03:00:37;;;;;;;27.40;20.52;;;;;;;5.07;54.83;101390.28;5028461;28;20402;-78
2022/03/20 03:03:04;;;;;;;26.85;20.17;;;;;;;5.13;55.11;101401.13;5030197;28;20387;-78
2022/03/20 03:05:31;;;;;;;24.20;19.02;;;;;;;5.20;54.63;101404.69;5030777;28;20433;-78
2022/03/20 03:10:56;;;;;;;27.10;19.55;;;;;;;5.19;54.29;101391.47;5036410;28;20434;-78
2022/03/20 03:13:24;;;;;;;26.17;18.70;;;;;;;5.19;54.09;101386.09;5025195;28;20820;-78
2022/03/20 03:15:54;;;;;;;25.23;19.23;;;;;;;5.18;54.08;101387.09;5024113;28;21492;-78
2022/03/20 03:18:22;;;;;;;24.88;19.40;;;;;;;5.16;54.16;101389.16;5026665;28;20407;-78
2022/03/20 03:20:49;;;;;;;25.13;19.60;;;;;;;5.23;53.55;101390.06;5034314;28;20411;-78
2022/03/20 03:23:14;;;;;;;26.45;19.02;;;;;;;5.13;53.96;101368.88;5029960;28;20490;-78
2022/03/20 03:25:41;;;;;;;24.92;18.10;;;;;;;5.14;53.98;101377.75;5030418;28;20497;-78
2022/03/20 03:28:09;;;;;;;25.50;19.03;;;;;;;5.24;53.72;101384.50;5039590;28;20465;-78
2022/03/20 03:30:36;;;;;;;23.37;18.47;;;;;;;5.32;53.66;101380.03;5031369;28;20424;-78
2022/03/20 03:33:01;;;;;;;24.10;18.67;;;;;;;5.33;53.42;101379.03;5031223;28;20928;-78
2022/03/20 03:35:42;;;;;;;25.30;19.10;;;;;;;5.41;53.31;101378.91;5032218;28;20424;-78
2022/03/20 03:38:19;;;;;;;26.75;18.70;;;;;;;5.38;53.36;101373.91;5031599;28;20492;-78
2022/03/20 03:40:47;;;;;;;26.85;19.02;;;;;;;5.43;53.18;101377.72;5030604;28;20418;-78
2022/03/20 03:43:15;;;;;;;27.08;19.05;;;;;;;5.45;53.27;101369.44;5038776;28;20397;-78
2022/03/20 03:45:41;;;;;;;24.83;18.93;;;;;;;5.47;53.23;101365.53;5028896;28;20471;-78
2022/03/20 03:48:07;;;;;;;27.13;19.48;;;;;;;5.44;53.28;101367.78;5030347;28;20863;-78
2022/03/20 03:50:34;;;;;;;23.42;18.35;;;;;;;5.34;53.26;101359.16;5031471;28;20402;-78
2022/03/20 03:52:59;;;;;;;26.23;19.10;;;;;;;5.41;53.20;101358.22;5029377;28;20792;-78
2022/03/20 03:55:25;;;;;;;25.15;19.27;;;;;;;5.45;53.00;101358.69;5014921;28;20549;-78
2022/03/20 03:57:51;;;;;;;24.30;19.17;;;;;;;5.45;52.97;101362.22;5036389;28;20395;-78
2022/03/20 04:00:18;;;;;;;25.42;18.58;;;;;;;5.42;52.81;101357.22;5031314;28;20395;-78
2022/03/20 04:02:44;;;;;;;28.70;17.97;;;;;;;5.43;53.20;101352.69;5031117;28;20449;-78
2022/03/20 04:05:10;;;;;;;26.42;18.77;;;;;;;5.39;52.79;101362.13;5030917;28;20885;-78
2022/03/20 04:07:35;;;;;;;24.30;19.00;;;;;;;5.47;52.74;101372.75;5030154;28;20944;-78
2022/03/20 04:10:02;;;;;;;23.77;18.15;;;;;;;5.57;53.25;101386.75;5028928;28;20413;-78
2022/03/20 04:12:28;;;;;;;24.92;18.58;;;;;;;5.58;52.65;101378.50;5027533;28;20487;-78
2022/03/20 04:14:54;;;;;;;25.90;18.77;;;;;;;5.58;52.15;101381.19;5030777;28;20410;-78
2022/03/20 04:17:19;;;;;;;26.07;18.20;;;;;;;5.55;52.08;101381.56;5034644;28;20407;-78
2022/03/20 04:19:44;;;;;;;24.98;19.27;;;;;;;5.55;52.20;101372.66;5038836;28;20417;-78
2022/03/20 04:22:10;;;;;;;25.87;18.30;;;;;;;5.54;52.61;101376.38;5034540;28;20497;-78
2022/03/20 04:24:38;;;;;;;25.17;18.60;;;;;;;5.64;52.94;101372.34;5028300;28;20870;-78
2022/03/20 04:27:04;;;;;;;24.63;18.17;;;;;;;5.66;51.93;101389.13;5029656;28;20415;-78
2022/03/20 04:29:31;;;;;;;22.73;18.45;;;;;;;5.70;52.27;101382.34;5030648;28;20743;-78
2022/03/20 04:31:57;;;;;;;25.40;19.50;;;;;;;5.77;52.71;101385.09;5029784;28;20391;-78
2022/03/20 04:34:26;;;;;;;25.48;18.67;;;;;;;5.80;52.95;101394.63;5029111;28;20406;-78
2022/03/20 04:36:52;;;;;;;22.65;17.65;;;;;;;5.69;52.55;101378.00;5028488;28;20392;-78
2022/03/20 04:39:17;;;;;;;25.38;18.08;;;;;;;5.56;52.48;101377.03;5031519;28;20802;-78
2022/03/20 04:41:43;;;;;;;29.97;18.43;;;;;;;5.58;52.09;101380.34;5034525;28;20399;-78
2022/03/20 04:44:12;;;;;;;24.17;17.73;;;;;;;5.65;52.31;101371.34;5033213;28;20411;-78
2022/03/20 04:46:38;;;;;;;24.58;17.60;;;;;;;5.59;52.45;101379.34;5032115;28;20413;-78
2022/03/20 04:59:59;;;;;;;25.98;18.25;;;;;;;5.39;53.23;101394.41;5032545;28;20402;-78
2022/03/20 05:02:24;;;;;;;28.30;20.13;;;;;;;5.37;53.28;101391.06;5033956;28;20666;-78
2022/03/20 05:04:50;;;;;;;26.13;18.63;;;;;;;5.28;53.38;101395.69;5027829;28;20494;-78
2022/03/20 05:07:15;;;;;;;27.97;19.13;;;;;;;5.22;53.41;101396.47;5033553;28;20415;-78
2022/03/20 05:15:21;;;;;;;25.40;19.02;;;;;;;5.13;53.71;101406.50;5033801;28;20829;-78
2022/03/20 05:17:47;;;;;;;23.80;19.80;;;;;;;5.18;54.11;101404.06;5033143;28;20437;-78
2022/03/20 05:20:12;;;;;;;27.50;19.23;;;;;;;5.21;54.53;101403.69;5032734;28;20456;-78
2022/03/20 05:22:38;;;;;;;26.07;18.43;;;;;;;5.22;54.16;101399.16;5033286;28;20480;-78
2022/03/20 05:25:07;;;;;;;24.97;18.57;;;;;;;5.27;54.62;101398.59;5032832;28;20410;-78
2022/03/20 05:27:32;;;;;;;23.98;18.70;;;;;;;5.28;55.47;101411.81;5031783;28;20410;-78
2022/03/20 05:29:58;;;;;;;25.73;18.88;;;;;;;5.28;55.10;101411.00;5029769;28;20407;-78
2022/03/20 05:32:23;;;;;;;25.87;20.23;;;;;;;5.25;55.70;101406.84;5026425;28;20415;-78
2022/03/20 05:34:49;;;;;;;26.07;19.13;;;;;;;5.24;56.32;101403.31;5033082;28;20395;-78
2022/03/20 05:37:14;;;;;;;22.35;18.98;;;;;;;5.26;55.99;101407.66;5037349;28;20416;-78
2022/03/20 05:39:39;;;;;;;27.33;20.10;;;;;;;5.22;55.24;101418.78;5033439;28;20410;-78
2022/03/20 05:42:06;;;;;;;26.73;20.03;;;;;;;5.22;55.48;101428.72;5053052;28;20483;-78
2022/03/20 05:44:33;;;;;;;26.38;20.40;;;;;;;5.22;56.55;101415.28;5032393;28;20478;-78
2022/03/20 05:47:00;;;;;;;27.10;20.20;;;;;;;5.22;56.43;101416.09;5031840;28;20415;-78
2022/03/20 05:49:25;;;;;;;28.97;22.20;;;;;;;5.21;56.70;101416.28;5029475;28;20403;-78
2022/03/20 05:51:51;;;;;;;28.87;21.07;;;;;;;5.20;56.84;101431.56;5032693;28;20401;-78
2022/03/20 05:54:17;;;;;;;32.42;22.95;;;;;;;5.21;57.35;101432.41;5031299;28;20430;-78
2022/03/20 05:59:28;;;;;;;31.90;22.80;;;;;;;5.26;57.96;101431.84;5028034;28;20413;-78
2022/03/20 06:01:54;;;;;;;32.37;23.17;;;;;;;5.27;57.63;101437.03;5026019;28;20399;-78
2022/03/20 06:04:20;;;;;;;35.57;23.77;;;;;;;5.31;57.79;101445.56;5031163;28;20959;-78
2022/03/20 06:06:48;;;;;;;37.97;26.00;;;;;;;5.31;57.23;101443.72;5027634;28;20422;-78
2022/03/20 06:09:14;;;;;;;36.00;26.38;;;;;;;5.33;57.11;101441.69;5032392;28;20399;-78
2022/03/20 06:11:39;;;;;;;34.27;25.07;;;;;;;5.34;56.78;101455.94;5037498;28;20435;-78
2022/03/20 06:14:04;;;;;;;35.83;24.83;;;;;;;5.34;57.08;101455.94;5036100;28;20433;-79
2022/03/20 06:16:31;;;;;;;28.30;21.13;;;;;;;5.34;56.36;101459.47;5027923;28;20414;-78
2022/03/20 06:18:57;;;;;;;27.37;20.73;;;;;;;5.44;56.81;101459.16;5031804;28;20395;-79
2022/03/20 06:21:23;;;;;;;30.08;20.38;;;;;;;5.58;56.92;101461.84;5028611;28;20490;-79
2022/03/20 06:23:50;;;;;;;25.67;20.48;;;;;;;5.69;56.33;101460.53;5024726;28;21851;-78
2022/03/20 06:26:16;;;;;;;28.60;20.42;;;;;;;5.79;56.71;101460.22;5021515;28;20778;-78
2022/03/20 06:28:43;;;;;;;27.38;19.77;;;;;;;5.91;56.38;101473.03;5029727;28;20457;-78
2022/03/20 06:31:12;;;;;;;27.52;21.33;;;;;;;5.98;56.46;101465.88;5031966;28;20863;-78
2022/03/20 06:33:38;;;;;;;28.73;20.95;;;;;;;5.98;55.90;101467.72;5029429;28;20451;-78
2022/03/20 06:36:04;;;;;;;26.83;20.67;;;;;;;6.02;56.69;101477.94;5028017;28;20469;-78
2022/03/20 06:38:31;;;;;;;26.75;20.63;;;;;;;6.10;56.95;101471.56;5024283;28;20403;-79
2022/03/20 06:40:56;;;;;;;28.83;20.17;;;;;;;6.16;56.85;101474.31;5029716;28;20408;-78
2022/03/20 06:43:23;;;;;;;31.65;21.05;;;;;;;6.23;55.06;101475.25;5026668;28;20948;-78
2022/03/20 06:45:49;;;;;;;29.88;21.58;;;;;;;6.30;55.45;101480.69;5028961;28;20496;-78
2022/03/20 06:48:14;;;;;;;25.15;20.27;;;;;;;6.16;55.48;101485.09;5019955;28;20402;-78
2022/03/20 06:50:39;;;;;;;24.43;19.80;;;;;;;6.28;55.05;101481.91;5026579;28;20829;-78
2022/03/20 06:53:05;;;;;;;26.80;21.07;;;;;;;6.39;54.23;101490.28;5033571;28;20429;-77
2022/03/20 06:55:31;;;;;;;26.13;21.13;;;;;;;6.47;55.58;101484.78;5025122;28;20418;-78
2022/03/20 06:57:58;;;;;;;26.90;20.27;;;;;;;6.51;56.04;101488.78;5024532;28;20440;-79
2022/03/20 07:00:25;;;;;;;28.15;20.92;;;;;;;6.50;56.68;101494.34;5027706;28;20412;-77
2022/03/20 07:03:01;;;;;;;27.00;20.25;;;;;;;6.50;56.53;101497.88;5026193;28;20465;-78
2022/03/20 07:05:27;;;;;;;26.13;19.75;;;;;;;6.51;56.53;101510.31;5029076;28;20415;-78
2022/03/20 07:07:53;;;;;;;25.02;19.73;;;;;;;6.63;56.56;101510.63;5025740;28;20430;-76
2022/03/20 07:10:21;;;;;;;26.05;20.58;;;;;;;6.76;56.72;101519.66;5030186;28;20475;-78
2022/03/20 07:12:46;;;;;;;28.65;20.98;;;;;;;6.94;55.35;101516.50;5033362;28;20409;-81
2022/03/20 07:15:11;;;;;;;28.07;19.77;;;;;;;7.06;54.90;101509.53;5031497;28;21020;-80
2022/03/20 07:17:37;;;;;;;24.70;20.27;;;;;;;7.12;54.38;101518.69;5029497;28;20403;-81
2022/03/20 07:20:09;;;;;;;27.10;19.90;;;;;;;7.40;53.26;101519.50;5031435;28;20414;-80
2022/03/20 07:22:35;;;;;;;28.25;21.05;;;;;;;7.65;53.05;101526.06;5028995;28;20407;-79
2022/03/20 07:29:29;;;;;;;24.80;20.17;;;;;;;7.89;51.93;101524.72;5031063;28;20689;-78
2022/03/20 07:30:30;;;;;;;25.40;19.57;;;;;;;8.12;51.73;101532.50;5030968;28;20402;-81
2022/03/20 07:32:55;;;;;;;24.00;18.23;;;;;;;8.24;50.59;101534.41;5024878;28;20424;-78
2022/03/20 07:35:20;;;;;;;23.02;18.77;;;;;;;8.29;49.94;101540.06;5017709;28;20428;-78
2022/03/20 07:37:46;;;;;;;27.83;19.90;;;;;;;8.41;50.30;101539.47;5019861;28;21325;-80
2022/03/20 07:40:12;;;;;;;25.37;19.33;;;;;;;8.33;50.47;101557.50;5041012;28;20499;-79
2022/03/20 07:42:38;;;;;;;26.27;19.80;;;;;;;8.13;51.49;101539.56;5022322;28;20770;-77
2022/03/20 07:45:04;;;;;;;25.73;19.93;;;;;;;8.10;51.55;101545.38;5022670;28;20418;-79
2022/03/20 07:47:29;;;;;;;22.73;19.63;;;;;;;8.02;51.31;101548.25;5027624;28;20411;-79
2022/03/20 07:49:55;;;;;;;25.40;19.27;;;;;;;8.01;51.33;101542.00;5033456;28;20406;-80
2022/03/20 07:52:20;;;;;;;33.20;21.00;;;;;;;8.04;52.95;101538.91;5026566;28;20474;-78
2022/03/20 07:54:46;;;;;;;25.58;20.33;;;;;;;7.99;53.76;101536.00;5024205;28;20418;-80
2022/03/20 07:57:12;;;;;;;26.67;20.45;;;;;;;7.86;53.95;101529.69;5025113;28;20492;-79
2022/03/20 07:59:37;;;;;;;27.77;21.90;;;;;;;7.83;55.37;101528.25;5022834;28;20838;-78
2022/03/20 08:02:03;;;;;;;27.80;22.83;;;;;;;7.81;56.49;101533.81;5036137;28;20473;-79
2022/03/20 08:04:28;;;;;;;29.25;23.35;;;;;;;7.93;56.08;101535.97;5023845;28;20404;-79
2022/03/20 08:06:53;;;;;;;26.80;21.43;;;;;;;8.04;56.21;101535.38;5023943;28;20410;-78
2022/03/20 08:09:19;;;;;;;27.93;21.63;;;;;;;8.19;55.98;101538.75;5019882;28;20433;-77
2022/03/20 08:11:45;;;;;;;27.83;21.90;;;;;;;8.29;55.22;101537.38;5025368;28;20414;-77
2022/03/20 08:14:10;;;;;;;28.80;23.38;;;;;;;8.42;56.08;101535.72;5032539;28;20799;-77
2022/03/20 08:16:39;;;;;;;26.30;21.80;;;;;;;8.59;55.37;101540.56;5039699;28;20404;-78
2022/03/20 08:19:05;;;;;;;28.30;21.50;;;;;;;8.75;55.49;101548.25;5030240;28;20435;-78
2022/03/20 08:21:33;;;;;;;30.67;23.13;;;;;;;9.00;55.34;101553.03;5034335;28;20837;-78
2022/03/20 08:24:01;;;;;;;29.85;22.25;;;;;;;9.05;54.22;101564.06;5023831;28;20508;-78
2022/03/20 08:26:26;;;;;;;30.33;23.75;;;;;;;8.92;54.19;101546.00;5027553;28;20411;-79
2022/03/20 08:28:51;;;;;;;28.70;22.77;;;;;;;8.81;54.29;101547.44;5033168;28;20461;-78
2022/03/20 08:31:17;;;;;;;30.53;22.23;;;;;;;8.79;54.19;101543.28;5032769;28;20407;-79
2022/03/20 08:33:43;;;;;;;28.88;23.60;;;;;;;8.78;54.22;101547.84;5031097;28;20426;-79
2022/03/20 08:36:09;;;;;;;32.28;23.30;;;;;;;8.77;53.87;101556.16;5029090;28;20416;-81
2022/03/20 08:38:34;;;;;;;29.37;22.57;;;;;;;8.92;52.00;101569.47;5026756;28;20415;-79
2022/03/20 08:41:01;;;;;;;29.53;23.13;;;;;;;8.87;52.83;101570.09;5018070;28;20875;-80
2022/03/20 08:43:27;;;;;;;29.25;23.70;;;;;;;8.74;53.22;101580.88;5026371;28;20395;-81
2022/03/20 08:45:52;;;;;;;28.70;22.77;;;;;;;8.71;53.90;101606.47;5027338;28;20457;-80
2022/03/20 08:48:18;;;;;;;27.30;22.37;;;;;;;8.64;54.07;101619.13;5030425;28;20499;-79
2022/03/20 08:50:48;;;;;;;25.93;21.57;;;;;;;9.06;52.43;101617.09;5028430;28;20509;-75
2022/03/20 08:53:16;;;;;;;27.93;21.03;;;;;;;9.29;52.89;101623.78;5029968;28;20778;-80
2022/03/20 08:55:41;;;;;;;27.52;20.85;;;;;;;9.28;51.10;101638.34;5029275;28;20417;-79
2022/03/20 08:58:07;;;;;;;25.97;21.50;;;;;;;9.86;49.80;101638.50;5029593;28;20964;-80
2022/03/20 09:00:33;;;;;;;26.83;21.10;;;;;;;10.39;47.15;101629.19;5032341;28;20913;-79
2022/03/20 09:02:58;;;;;;;29.08;19.75;;;;;;;10.67;47.23;101634.25;5031307;28;20415;-81
2022/03/20 09:05:23;;;;;;;24.60;19.90;;;;;;;10.54;47.85;101633.53;5029189;28;20468;-79
2022/03/20 09:07:50;;;;;;;26.60;20.70;;;;;;;10.78;46.15;101646.28;5031931;28;20421;-81
2022/03/20 09:10:16;;;;;;;25.70;21.08;;;;;;;10.94;46.41;101635.75;5020528;28;20451;-80
2022/03/20 09:12:43;;;;;;;24.27;20.20;;;;;;;11.23;45.74;101642.44;5029169;28;20835;-79
2022/03/20 09:15:12;;;;;;;25.98;20.88;;;;;;;11.88;44.62;101643.78;5031980;28;20713;-80
2022/03/20 09:20:22;;;;;;;24.98;21.10;;;;;;;11.77;44.92;101651.81;5031730;28;20414;-79
2022/03/20 13:20:16;;;;;;;126.80;21.10;;;;;;;29.30;20.88;101507.38;5056475;27;20836;-84
2022/03/20 13:22:42;;;;;;;19.58;12.68;;;;;;;30.32;19.21;101511.94;5058371;28;20427;-81
2022/03/20 13:25:19;;;;;;;16.77;13.50;;;;;;;30.13;19.41;101511.72;5062299;28;20412;-79
2022/03/20 13:27:47;;;;;;;13.98;12.68;;;;;;;30.50;19.24;101513.28;5060398;28;20408;-79
2022/03/20 13:30:14;;;;;;;16.25;13.07;;;;;;;30.93;18.82;101517.34;5058579;28;20396;-79
2022/03/20 13:32:41;;;;;;;13.13;11.60;;;;;;;31.25;18.09;101511.47;5059584;28;20497;-79
2022/03/20 13:35:07;;;;;;;13.68;11.50;;;;;;;30.79;18.12;101509.38;5060213;28;20408;-79
2022/03/20 13:37:32;;;;;;;16.38;11.77;;;;;;;31.33;17.80;101510.50;5059003;28;21023;-79
2022/03/20 13:39:58;;;;;;;14.60;11.60;;;;;;;30.89;17.50;101509.66;5061805;28;20492;-79
2022/03/20 13:42:29;;;;;;;14.63;10.93;;;;;;;30.35;17.69;101508.44;5060877;28;20412;-78
2022/03/20 13:44:56;;;;;;;14.98;11.02;;;;;;;30.14;17.63;101497.38;5062158;28;20400;-79
2022/03/20 13:47:24;;;;;;;12.93;11.10;;;;;;;29.94;19.07;101497.53;5064955;28;20606;-79
2022/03/20 13:49:54;;;;;;;12.90;10.82;;;;;;;30.54;17.90;101493.81;5060153;28;23126;-80
2022/03/20 13:55:03;;;;;;;15.70;10.25;;;;;;;30.49;17.82;101500.50;5060435;28;20420;-79
2022/03/20 13:57:30;;;;;;;12.40;10.98;;;;;;;30.66;17.39;101497.38;5060338;28;20408;-79
2022/03/20 14:00:00;;;;;;;14.43;10.65;;;;;;;30.76;17.65;101493.25;5061614;28;20741;-78
2022/03/20 14:02:39;;;;;;;13.85;10.75;;;;;;;30.73;17.60;101492.00;5058812;28;20413;-79
2022/03/20 14:05:09;;;;;;;14.65;10.52;;;;;;;31.05;17.15;101489.34;5061096;28;20408;-78
2022/03/20 14:07:35;;;;;;;14.03;10.53;;;;;;;31.08;16.84;101485.81;5057065;28;20609;-78
2022/03/20 14:10:19;;;;;;;13.95;11.40;;;;;;;30.24;17.15;101476.50;5060387;28;20412;-78
2022/03/20 14:12:44;;;;;;;12.48;9.85;;;;;;;30.75;16.97;101489.69;5057606;28;20456;-78
2022/03/20 14:15:12;;;;;;;11.17;9.13;;;;;;;29.98;17.64;101487.28;5062294;28;20478;-78
2022/03/20 14:17:38;;;;;;;13.93;10.75;;;;;;;27.93;18.80;101479.72;5059398;28;20500;-78
2022/03/20 14:20:07;;;;;;;14.10;10.00;;;;;;;25.75;21.19;101472.31;5080126;28;20411;-79
2022/03/20 14:22:52;;;;;;;16.13;10.98;;;;;;;23.95;23.89;101468.19;5077567;28;20407;-80
2022/03/20 14:25:33;;;;;;;12.05;9.25;;;;;;;23.48;24.02;101473.03;5077936;28;20405;-80
2022/03/20 14:28:01;;;;;;;14.45;10.02;;;;;;;24.67;23.34;101467.09;5080624;28;20430;-80
2022/03/20 14:41:32;;;;;;;10.77;9.48;;;;;;;23.70;23.81;101462.09;5067230;28;22604;-80
2022/03/20 14:44:16;;;;;;;12.95;9.57;;;;;;;23.19;24.80;101461.41;5067638;28;20405;-79
2022/03/20 14:46:43;;;;;;;14.98;9.65;;;;;;;22.72;25.68;101465.28;5074368;28;22171;-79
2022/03/20 14:49:09;;;;;;;14.65;9.77;;;;;;;22.17;26.07;101461.41;5066961;28;20419;-79
2022/03/20 14:51:37;;;;;;;16.95;9.57;;;;;;;21.72;26.46;101460.88;5065102;28;20403;-79
2022/03/20 14:54:03;;;;;;;17.00;10.05;;;;;;;21.31;27.83;101458.88;5079202;28;20400;-80
2022/03/20 14:56:28;;;;;;;14.27;10.15;;;;;;;20.96;28.09;101452.59;5064886;28;20525;-80
2022/03/20 14:58:57;;;;;;;13.68;9.73;;;;;;;20.73;28.44;101449.75;5066997;28;20510;-80
2022/03/20 15:01:23;;;;;;;13.40;9.00;;;;;;;20.50;29.34;101452.16;5065363;28;20416;-80
2022/03/20 15:03:48;;;;;;;16.70;10.20;;;;;;;20.30;29.88;101452.28;5065041;28;20464;-80
2022/03/20 15:06:14;;;;;;;15.88;9.88;;;;;;;20.21;30.36;101445.72;5065060;28;20416;-80
2022/03/20 15:11:26;;;;;;;13.43;9.25;;;;;;;19.85;29.95;101445.09;5064508;28;20453;-80
2022/03/20 15:13:56;;;;;;;12.05;9.20;;;;;;;19.72;30.59;101447.63;5073289;28;20433;-79
2022/03/20 15:16:22;;;;;;;16.10;8.63;;;;;;;19.60;30.94;101445.19;5072059;28;20410;-79
2022/03/20 15:18:48;;;;;;;11.52;8.70;;;;;;;19.32;30.61;101448.56;5076465;28;20424;-79
2022/03/20 15:21:14;;;;;;;10.88;8.85;;;;;;;19.02;31.36;101450.28;5076139;28;20403;-79
2022/03/20 15:23:39;;;;;;;14.20;9.23;;;;;;;18.78;32.24;101451.94;5059730;28;20412;-79
2022/03/20 15:26:05;;;;;;;14.20;9.00;;;;;;;18.56;32.69;101452.22;5080074;28;20414;-79
2022/03/20 15:28:33;;;;;;;11.17;9.10;;;;;;;18.55;32.94;101445.06;5072999;28;20404;-79
2022/03/20 15:30:59;;;;;;;14.48;9.15;;;;;;;18.55;32.90;101442.31;5079467;28;20428;-79
2022/03/20 15:33:24;;;;;;;15.20;9.38;;;;;;;18.60;33.01;101449.75;5086880;28;20412;-79
2022/03/20 15:35:52;;;;;;;12.90;8.30;;;;;;;18.60;33.17;101444.25;5069551;28;20717;-79
2022/03/20 15:38:18;;;;;;;12.85;8.40;;;;;;;18.49;32.90;101440.66;5059871;28;20408;-79
2022/03/20 15:40:44;;;;;;;9.32;7.57;;;;;;;18.29;32.96;101435.13;5057085;28;20471;-79
2022/03/20 15:43:09;;;;;;;13.77;9.03;;;;;;;18.09;33.35;101440.59;5067969;28;20454;-79
2022/03/20 15:45:35;;;;;;;15.17;8.17;;;;;;;17.98;33.70;101436.97;5064154;28;20403;-79
2022/03/20 15:48:00;;;;;;;9.87;7.63;;;;;;;17.83;33.90;101436.94;5050197;28;20449;-79
2022/03/20 15:50:26;;;;;;;12.73;8.07;;;;;;;17.78;33.91;101427.88;5072896;28;20419;-79
2022/03/20 15:52:52;;;;;;;12.63;7.30;;;;;;;17.63;34.60;101428.66;5073392;28;20431;-79
2022/03/20 15:55:17;;;;;;;15.57;7.93;;;;;;;17.41;35.67;101425.22;5073143;28;20399;-79
2022/03/20 15:57:42;;;;;;;13.38;8.05;;;;;;;17.15;35.80;101428.94;5074219;28;20465;-79
2022/03/20 16:00:08;;;;;;;16.30;8.47;;;;;;;16.98;36.43;101426.34;5075246;28;20403;-79